Time;durP1;ratioP1;P1;durP2;ratioP2;P2;SDS_P1;SDS_P2;PMS_P1;PMS_P2;Temp;Humidity;BMP_temperature;BMP_pressure;BME280_temperature;BME280_humidity;BME280_pressure;Samples;Min_cycle;Max_cycle;Signal;HPM_P1;HPM_P2
2021/07/21 00:00:24;;;;;;;15.53;9.83;;;18.50;99.90;;;;;;1944149;73;21438;-74
2021/07/21 00:02:52;;;;;;;15.25;9.43;;;18.50;99.90;;;;;;1937642;72;21707;-75
2021/07/21 00:05:21;;;;;;;17.00;10.10;;;18.50;99.90;;;;;;1933054;73;21253;-75
2021/07/21 00:07:49;;;;;;;17.42;9.70;;;18.50;99.90;;;;;;1940920;73;21093;-75
2021/07/21 00:10:23;;;;;;;15.68;10.00;;;18.60;99.90;;;;;;1942480;72;21069;-75
2021/07/21 00:15:37;;;;;;;17.90;10.23;;;18.50;99.90;;;;;;1954802;73;21069;-74
2021/07/21 00:18:18;;;;;;;18.57;10.55;;;18.60;99.90;;;;;;1950702;73;21036;-75
2021/07/21 00:20:45;;;;;;;15.75;10.15;;;18.60;99.90;;;;;;1944486;73;21092;-74
2021/07/21 00:23:13;;;;;;;19.17;10.43;;;18.50;99.90;;;;;;1952580;72;21038;-75
2021/07/21 00:25:40;;;;;;;16.27;10.28;;;18.50;99.90;;;;;;1944841;73;21089;-75
2021/07/21 00:28:08;;;;;;;16.60;10.32;;;18.50;99.90;;;;;;1954799;73;21081;-75
2021/07/21 00:30:35;;;;;;;18.05;10.45;;;18.50;99.90;;;;;;1947422;73;21081;-75
2021/07/21 00:33:03;;;;;;;17.90;10.25;;;18.40;99.90;;;;;;1949942;73;21125;-74
2021/07/21 00:35:31;;;;;;;20.05;10.72;;;18.50;99.90;;;;;;1942029;73;21139;-73
2021/07/21 00:37:59;;;;;;;19.62;10.55;;;18.50;99.90;;;;;;1926743;73;21131;-73
2021/07/21 00:40:27;;;;;;;19.85;10.65;;;18.50;99.90;;;;;;1951723;73;20998;-74
2021/07/21 00:42:54;;;;;;;17.27;10.55;;;18.50;99.90;;;;;;1943438;73;21505;-74
2021/07/21 00:45:22;;;;;;;17.02;10.43;;;18.50;99.90;;;;;;1947372;73;21527;-74
2021/07/21 00:47:49;;;;;;;19.90;10.58;;;18.50;99.90;;;;;;1950699;73;21085;-74
2021/07/21 00:50:17;;;;;;;23.45;11.88;;;18.40;99.90;;;;;;1948756;73;21113;-74
2021/07/21 00:52:45;;;;;;;21.62;11.10;;;18.50;99.90;;;;;;1952797;73;21038;-74
2021/07/21 00:55:15;;;;;;;23.32;11.30;;;18.50;99.90;;;;;;1951555;73;21097;-74
2021/07/21 00:57:44;;;;;;;23.45;11.53;;;18.50;99.90;;;;;;1926851;73;21030;-74
2021/07/21 01:00:14;;;;;;;23.75;11.33;;;18.50;99.90;;;;;;1938236;73;21560;-74
2021/07/21 01:02:43;;;;;;;21.73;11.55;;;18.50;99.90;;;;;;1933150;73;21644;-75
2021/07/21 01:05:13;;;;;;;19.35;11.25;;;18.50;99.90;;;;;;1946304;73;21144;-75
2021/07/21 01:07:44;;;;;;;21.15;11.35;;;18.40;99.90;;;;;;1941707;71;21115;-74
2021/07/21 01:10:12;;;;;;;17.98;10.75;;;18.40;99.90;;;;;;1945964;73;21638;-74
2021/07/21 01:12:54;;;;;;;19.15;11.28;;;18.40;99.90;;;;;;1950583;73;21090;-76
2021/07/21 01:15:28;;;;;;;21.87;10.78;;;18.40;99.90;;;;;;1913582;73;21094;-74
2021/07/21 01:18:04;;;;;;;19.77;10.63;;;18.30;99.90;;;;;;1916843;75;21082;-74
2021/07/21 01:20:58;;;;;;;21.52;11.00;;;18.40;99.90;;;;;;1943427;73;21065;-75
2021/07/21 01:23:34;;;;;;;22.58;11.20;;;18.40;99.90;;;;;;1950995;73;21139;-75
2021/07/21 01:26:14;;;;;;;18.20;11.00;;;18.40;99.90;;;;;;1953410;73;21081;-75
2021/07/21 01:28:45;;;;;;;20.02;11.28;;;18.40;99.90;;;;;;1951779;73;21034;-75
2021/07/21 01:31:15;;;;;;;18.42;11.03;;;18.40;99.90;;;;;;1941802;73;21197;-76
2021/07/21 01:33:44;;;;;;;18.37;10.38;;;18.40;99.90;;;;;;1943056;73;21022;-75
2021/07/21 01:36:15;;;;;;;18.37;10.43;;;18.40;99.90;;;;;;1925152;73;21014;-75
2021/07/21 01:38:45;;;;;;;17.80;10.55;;;18.30;99.90;;;;;;1940007;73;21453;-75
2021/07/21 01:41:19;;;;;;;17.05;10.63;;;18.30;99.90;;;;;;1953850;73;21054;-75
2021/07/21 01:43:49;;;;;;;17.35;10.63;;;18.30;99.90;;;;;;1940189;73;21026;-74
2021/07/21 01:46:22;;;;;;;18.77;11.20;;;18.30;99.90;;;;;;1948050;73;21110;-75
2021/07/21 01:48:52;;;;;;;19.67;10.38;;;18.30;99.90;;;;;;1943087;73;21082;-73
2021/07/21 01:51:23;;;;;;;18.98;10.63;;;18.30;99.90;;;;;;1929851;73;21195;-74
2021/07/21 01:53:55;;;;;;;18.30;10.48;;;18.40;99.90;;;;;;1938653;73;21563;-74
2021/07/21 01:56:25;;;;;;;19.00;10.45;;;18.40;99.90;;;;;;1930500;72;21081;-74
2021/07/21 01:58:56;;;;;;;17.17;9.98;;;18.30;99.90;;;;;;1926771;73;21101;-74
2021/07/21 02:01:29;;;;;;;15.80;10.63;;;18.30;99.90;;;;;;1950694;73;21114;-74
2021/07/21 02:03:59;;;;;;;17.62;10.18;;;18.30;99.90;;;;;;1953142;72;21085;-74
2021/07/21 02:06:29;;;;;;;18.85;10.82;;;18.30;99.90;;;;;;1938764;73;21509;-74
2021/07/21 02:08:58;;;;;;;20.85;10.48;;;18.30;99.90;;;;;;1948303;73;21539;-77
2021/07/21 02:11:28;;;;;;;14.58;10.75;;;18.30;99.90;;;;;;1945820;73;21139;-76
2021/07/21 02:14:01;;;;;;;17.50;10.25;;;18.30;99.90;;;;;;1950725;71;21034;-76
2021/07/21 02:16:29;;;;;;;15.83;10.70;;;18.20;99.90;;;;;;1934916;73;21171;-75
2021/07/21 02:19:03;;;;;;;18.12;10.15;;;18.20;99.90;;;;;;1951154;73;21132;-75
2021/07/21 02:21:33;;;;;;;18.42;10.90;;;18.20;99.90;;;;;;1944410;73;21139;-76
2021/07/21 02:24:01;;;;;;;18.70;11.22;;;18.20;99.90;;;;;;1943880;73;21207;-75
2021/07/21 02:26:29;;;;;;;17.90;10.08;;;18.20;99.90;;;;;;1949692;73;21467;-76
2021/07/21 02:28:57;;;;;;;18.35;10.53;;;18.20;99.90;;;;;;1947689;73;21086;-76
2021/07/21 02:31:30;;;;;;;18.87;10.88;;;18.20;99.90;;;;;;1950926;73;21724;-76
2021/07/21 02:34:05;;;;;;;21.05;12.28;;;18.20;99.90;;;;;;1933403;73;21195;-76
2021/07/21 02:36:32;;;;;;;17.37;12.65;;;18.20;99.90;;;;;;1934177;73;21161;-76
2021/07/21 02:39:02;;;;;;;21.10;11.25;;;18.20;99.90;;;;;;1922532;73;21022;-74
2021/07/21 02:41:29;;;;;;;23.67;11.60;;;18.20;99.90;;;;;;1932684;72;21631;-74
2021/07/21 02:43:57;;;;;;;24.70;12.37;;;18.10;99.90;;;;;;1949680;72;21160;-74
2021/07/21 02:46:24;;;;;;;22.25;13.53;;;18.10;99.90;;;;;;1951717;73;21424;-74
2021/07/21 02:48:52;;;;;;;22.58;12.98;;;18.10;99.90;;;;;;1935344;73;21142;-74
2021/07/21 02:51:43;;;;;;;21.37;12.50;;;18.10;99.90;;;;;;1949304;73;21659;-75
2021/07/21 02:54:16;;;;;;;23.50;13.45;;;18.00;99.90;;;;;;1922173;73;21101;-75
2021/07/21 02:56:47;;;;;;;24.72;14.18;;;17.90;99.90;;;;;;1951387;73;21143;-75
2021/07/21 02:59:16;;;;;;;22.98;13.83;;;17.90;99.90;;;;;;1931118;73;21488;-76
2021/07/21 03:01:48;;;;;;;24.12;13.38;;;17.90;99.90;;;;;;1948317;73;21591;-76
2021/07/21 03:04:18;;;;;;;22.93;13.77;;;17.80;99.90;;;;;;1937333;73;21125;-76
2021/07/21 03:06:48;;;;;;;21.17;12.82;;;17.70;99.90;;;;;;1938831;73;21205;-75
2021/07/21 03:09:18;;;;;;;20.12;12.93;;;17.60;99.90;;;;;;1922468;73;21093;-75
2021/07/21 03:11:48;;;;;;;25.25;14.25;;;17.50;99.90;;;;;;1932134;73;21118;-75
2021/07/21 03:14:17;;;;;;;19.77;13.25;;;17.50;99.90;;;;;;1934080;73;21110;-76
2021/07/21 03:16:46;;;;;;;22.27;13.28;;;17.50;99.90;;;;;;1949254;73;21085;-76
2021/07/21 03:19:16;;;;;;;25.82;13.83;;;17.40;99.90;;;;;;1934652;73;21131;-75
2021/07/21 03:21:44;;;;;;;18.67;12.95;;;17.30;99.90;;;;;;1946445;73;21206;-76
2021/07/21 03:24:13;;;;;;;20.65;13.53;;;17.30;99.90;;;;;;1957585;73;21064;-76
2021/07/21 03:26:41;;;;;;;22.90;14.35;;;17.30;99.90;;;;;;1942074;73;21618;-74
2021/07/21 03:29:09;;;;;;;26.80;13.88;;;17.20;99.90;;;;;;1924622;73;21097;-75
2021/07/21 03:31:38;;;;;;;21.30;13.30;;;17.10;99.90;;;;;;1941845;73;21759;-75
2021/07/21 03:34:09;;;;;;;22.37;13.13;;;17.10;99.90;;;;;;1958264;73;21092;-76
2021/07/21 03:36:39;;;;;;;21.57;14.18;;;17.10;99.90;;;;;;1955433;73;21038;-76
2021/07/21 03:39:10;;;;;;;21.73;13.40;;;17.00;99.90;;;;;;1937059;73;21459;-74
2021/07/21 03:41:38;;;;;;;24.45;13.08;;;17.00;99.90;;;;;;1955360;73;21484;-74
2021/07/21 03:44:08;;;;;;;19.15;13.32;;;17.00;99.90;;;;;;1950429;72;21081;-75
2021/07/21 03:46:40;;;;;;;24.45;14.43;;;16.90;99.90;;;;;;1948229;73;21555;-75
2021/07/21 03:49:08;;;;;;;;;;;17.00;99.90;;;;;;1956765;72;21101;-75
2021/07/21 03:51:38;;;;;;;21.33;14.45;;;17.00;99.90;;;;;;1939535;71;20186;-70
2021/07/21 03:54:09;;;;;;;25.05;13.78;;;17.00;99.90;;;;;;1830804;77;21115;-71
2021/07/21 03:56:38;;;;;;;23.80;13.70;;;17.10;99.90;;;;;;1854896;77;21162;-71
2021/07/21 03:59:07;;;;;;;21.35;14.28;;;17.00;99.90;;;;;;1864717;77;21113;-72
2021/07/21 04:01:36;;;;;;;22.85;14.50;;;16.90;99.90;;;;;;1863741;75;21186;-71
2021/07/21 04:04:05;;;;;;;21.77;14.30;;;16.90;99.90;;;;;;1804171;78;21127;-72
2021/07/21 04:06:34;;;;;;;25.30;14.98;;;16.90;99.90;;;;;;1831662;78;21594;-72
2021/07/21 04:09:07;;;;;;;26.25;15.53;;;16.80;99.90;;;;;;1833697;77;21096;-71
2021/07/21 04:11:35;;;;;;;22.90;14.98;;;16.90;99.90;;;;;;1841810;75;21148;-71
2021/07/21 04:14:05;;;;;;;28.60;16.35;;;16.90;99.90;;;;;;1832417;77;21167;-72
2021/07/21 04:16:35;;;;;;;27.13;14.95;;;16.90;99.90;;;;;;1815166;78;21211;-71
2021/07/21 04:19:03;;;;;;;22.50;15.32;;;16.90;99.90;;;;;;1832121;78;21116;-72
2021/07/21 04:21:32;;;;;;;27.27;16.07;;;16.90;99.90;;;;;;1838879;75;21648;-72
2021/07/21 04:24:00;;;;;;;25.50;15.32;;;17.00;99.90;;;;;;1864700;77;21186;-72
2021/07/21 04:26:28;;;;;;;24.82;16.30;;;17.00;99.90;;;;;;1825246;77;22212;-72
2021/07/21 04:28:56;;;;;;;25.05;15.90;;;17.10;99.90;;;;;;1833059;78;21180;-72
2021/07/21 04:31:28;;;;;;;29.45;15.70;;;17.00;99.90;;;;;;1827783;77;21108;-71
2021/07/21 04:33:55;;;;;;;28.15;16.10;;;17.00;99.90;;;;;;1830903;77;21113;-71
2021/07/21 04:36:24;;;;;;;26.17;16.10;;;17.00;99.90;;;;;;1826222;77;21186;-72
2021/07/21 04:38:52;;;;;;;28.27;15.15;;;17.00;99.90;;;;;;1832828;78;21519;-72
2021/07/21 04:41:22;;;;;;;25.57;15.70;;;17.10;99.90;;;;;;1836065;77;21224;-72
2021/07/21 04:43:51;;;;;;;27.25;15.20;;;17.10;99.90;;;;;;1834182;78;21167;-72
2021/07/21 04:46:19;;;;;;;28.40;15.83;;;17.10;99.90;;;;;;1831971;77;21053;-71
2021/07/21 04:48:47;;;;;;;26.65;16.17;;;17.10;99.90;;;;;;1833427;77;21831;-72
2021/07/21 04:51:17;;;;;;;33.70;14.80;;;17.20;99.90;;;;;;1835684;77;21038;-72
2021/07/21 04:53:46;;;;;;;29.85;16.10;;;17.20;99.90;;;;;;1837587;75;21182;-71
2021/07/21 04:56:13;;;;;;;24.37;14.30;;;17.10;99.90;;;;;;1840173;77;21034;-72
2021/07/21 04:58:41;;;;;;;27.90;15.72;;;17.20;99.90;;;;;;1813733;77;21085;-72
2021/07/21 05:01:08;;;;;;;27.93;14.73;;;17.20;99.90;;;;;;1830212;77;21057;-72
2021/07/21 05:03:36;;;;;;;25.97;15.68;;;17.20;99.90;;;;;;1828819;77;21170;-72
2021/07/21 05:06:04;;;;;;;27.25;15.58;;;17.30;99.90;;;;;;1834106;77;21120;-72
2021/07/21 05:08:31;;;;;;;28.47;15.53;;;17.40;99.90;;;;;;1860463;77;21540;-71
2021/07/21 05:10:59;;;;;;;30.25;15.85;;;17.40;99.90;;;;;;1833712;77;21547;-72
2021/07/21 05:13:26;;;;;;;26.55;15.88;;;17.40;99.90;;;;;;1839919;77;21086;-73
2021/07/21 05:15:54;;;;;;;27.25;15.00;;;17.40;99.90;;;;;;1836400;77;21057;-71
2021/07/21 05:18:21;;;;;;;22.30;14.58;;;17.50;99.90;;;;;;1832932;77;21100;-71
2021/07/21 05:20:49;;;;;;;23.32;14.73;;;17.50;99.90;;;;;;1831985;77;21574;-71
2021/07/21 05:23:16;;;;;;;30.35;15.28;;;17.60;99.90;;;;;;1832957;77;21140;-71
2021/07/21 05:25:44;;;;;;;21.97;14.50;;;17.60;99.90;;;;;;1834476;77;21210;-73
2021/07/21 05:28:11;;;;;;;23.65;14.30;;;17.60;99.90;;;;;;1833074;77;21546;-71
2021/07/21 05:30:39;;;;;;;24.47;15.00;;;17.70;99.90;;;;;;1832316;77;21113;-71
2021/07/21 05:33:06;;;;;;;25.05;14.55;;;17.80;99.90;;;;;;1832615;77;21211;-71
2021/07/21 05:35:34;;;;;;;25.57;14.85;;;17.80;99.90;;;;;;1835820;77;21511;-71
2021/07/21 05:38:02;;;;;;;25.72;14.53;;;17.80;99.90;;;;;;1827430;77;21574;-71
2021/07/21 05:40:30;;;;;;;26.80;14.38;;;17.90;99.90;;;;;;1832997;78;21061;-71
2021/07/21 05:42:57;;;;;;;23.25;15.35;;;18.00;99.90;;;;;;1832598;77;21617;-71
2021/07/21 05:45:25;;;;;;;24.43;14.00;;;18.00;99.90;;;;;;1832347;77;21603;-71
2021/07/21 05:47:52;;;;;;;23.80;13.43;;;18.00;99.90;;;;;;1832751;77;21054;-72
2021/07/21 05:50:20;;;;;;;22.55;13.18;;;18.00;99.90;;;;;;1832860;78;21499;-71
2021/07/21 05:52:48;;;;;;;22.20;13.70;;;18.00;99.90;;;;;;1833023;77;21724;-72
2021/07/21 05:55:16;;;;;;;22.95;14.03;;;18.00;99.90;;;;;;1833611;77;21708;-71
2021/07/21 05:57:44;;;;;;;21.70;12.98;;;18.00;99.90;;;;;;1833504;77;21142;-71
2021/07/21 06:00:13;;;;;;;27.52;13.18;;;18.10;99.90;;;;;;1832831;78;21187;-71
2021/07/21 06:02:41;;;;;;;24.35;14.00;;;18.20;99.90;;;;;;1830823;78;21058;-71
2021/07/21 06:05:09;;;;;;;26.52;13.50;;;18.10;99.90;;;;;;1830512;77;21148;-71
2021/07/21 06:07:37;;;;;;;25.37;13.40;;;18.00;99.90;;;;;;1833094;77;21606;-72
2021/07/21 06:10:07;;;;;;;26.82;13.40;;;18.10;99.90;;;;;;1835551;77;21171;-72
2021/07/21 06:12:35;;;;;;;23.47;12.45;;;18.10;99.90;;;;;;1835478;77;21148;-72
2021/07/21 06:15:05;;;;;;;24.30;13.95;;;18.10;99.90;;;;;;1836048;77;21061;-72
2021/07/21 06:17:33;;;;;;;33.42;13.90;;;18.10;99.90;;;;;;1833043;77;21065;-72
2021/07/21 06:20:02;;;;;;;25.35;13.72;;;18.10;99.90;;;;;;1835431;77;21699;-72
2021/07/21 06:22:33;;;;;;;29.10;14.07;;;18.20;99.90;;;;;;1851132;75;21096;-72
2021/07/21 06:24:59;;;;;;;22.77;13.08;;;18.20;99.90;;;;;;1835779;78;21055;-72
2021/07/21 06:27:26;;;;;;;27.90;14.38;;;18.20;99.90;;;;;;1840885;77;21018;-72
2021/07/21 06:29:54;;;;;;;27.35;14.45;;;18.20;99.90;;;;;;1833254;77;21626;-72
2021/07/21 06:32:21;;;;;;;25.85;13.68;;;18.20;99.90;;;;;;1833637;77;21089;-72
2021/07/21 06:34:49;;;;;;;29.12;13.58;;;18.20;99.90;;;;;;1833836;77;21129;-72
2021/07/21 06:37:16;;;;;;;27.73;14.05;;;18.30;99.90;;;;;;1835423;77;21099;-73
2021/07/21 06:39:44;;;;;;;26.52;15.68;;;18.30;99.90;;;;;;1835538;77;21069;-68
2021/07/21 06:42:11;;;;;;;25.88;14.58;;;18.30;99.90;;;;;;1833569;78;21842;-72
2021/07/21 06:44:39;;;;;;;28.62;14.07;;;18.30;99.90;;;;;;1832048;77;21115;-74
2021/07/21 06:47:06;;;;;;;25.70;14.10;;;18.40;99.90;;;;;;1841337;77;21053;-74
2021/07/21 06:49:34;;;;;;;25.23;13.65;;;18.40;99.90;;;;;;1814201;78;21559;-74
2021/07/21 06:52:01;;;;;;;22.05;12.98;;;18.40;99.90;;;;;;1832042;77;21144;-74
2021/07/21 06:54:29;;;;;;;28.32;13.95;;;18.30;99.90;;;;;;1833492;77;21065;-74
2021/07/21 06:56:56;;;;;;;26.25;14.33;;;18.30;99.90;;;;;;1835857;77;21573;-73
2021/07/21 06:59:27;;;;;;;25.88;14.70;;;18.40;99.90;;;;;;1833975;77;21178;-74
2021/07/21 07:01:53;;;;;;;33.92;14.90;;;18.40;99.90;;;;;;1833064;77;21596;-76
2021/07/21 07:04:20;;;;;;;28.10;14.05;;;18.40;99.90;;;;;;1833977;77;21106;-76
2021/07/21 07:06:48;;;;;;;24.60;12.85;;;18.50;99.90;;;;;;1836892;77;21468;-75
2021/07/21 07:09:15;;;;;;;27.20;13.85;;;18.40;99.90;;;;;;1832367;77;21479;-74
2021/07/21 07:11:43;;;;;;;28.15;12.98;;;18.40;99.90;;;;;;1829313;77;21096;-73
2021/07/21 07:14:10;;;;;;;25.60;12.50;;;18.50;99.90;;;;;;1831487;77;21198;-74
2021/07/21 07:16:38;;;;;;;20.43;12.30;;;18.50;99.90;;;;;;1831469;77;21158;-73
2021/07/21 07:19:05;;;;;;;26.42;12.63;;;18.50;99.90;;;;;;1829001;77;21720;-73
2021/07/21 07:21:33;;;;;;;21.70;12.33;;;18.50;99.90;;;;;;1830813;77;21083;-72
2021/07/21 07:24:00;;;;;;;19.60;12.25;;;18.50;99.90;;;;;;1830901;78;21089;-73
2021/07/21 07:26:28;;;;;;;20.45;12.88;;;18.60;99.90;;;;;;1829354;78;21565;-73
2021/07/21 07:28:56;;;;;;;26.87;12.23;;;18.70;99.90;;;;;;1829972;77;21159;-74
2021/07/21 07:31:24;;;;;;;20.43;12.73;;;18.70;99.90;;;;;;1828046;77;21604;-74
2021/07/21 07:33:52;;;;;;;20.65;12.40;;;18.80;99.90;;;;;;1830592;78;21233;-74
2021/07/21 07:36:20;;;;;;;20.08;12.85;;;18.80;99.90;;;;;;1826345;78;21098;-74
2021/07/21 07:38:47;;;;;;;20.75;12.03;;;18.80;99.90;;;;;;1829934;77;21116;-74
2021/07/21 07:41:15;;;;;;;22.35;12.10;;;18.80;99.90;;;;;;1830418;78;21218;-75
2021/07/21 07:43:42;;;;;;;21.57;12.20;;;18.80;99.90;;;;;;1829705;78;21054;-74
2021/07/21 07:46:10;;;;;;;21.65;13.13;;;18.90;99.90;;;;;;1830489;78;21157;-74
2021/07/21 07:48:38;;;;;;;18.75;11.63;;;18.90;99.90;;;;;;1797390;78;21199;-75
2021/07/21 07:51:05;;;;;;;19.75;11.53;;;18.90;99.90;;;;;;1830575;77;21134;-74
2021/07/21 07:53:33;;;;;;;23.12;12.85;;;19.00;99.90;;;;;;1831179;77;21137;-74
2021/07/21 07:56:00;;;;;;;17.30;11.55;;;19.00;99.90;;;;;;1826018;77;21057;-73
2021/07/21 07:58:28;;;;;;;17.82;10.35;;;19.00;99.90;;;;;;1832670;78;21114;-72
2021/07/21 08:00:56;;;;;;;18.87;11.35;;;19.10;99.90;;;;;;1839973;77;21124;-74
2021/07/21 08:03:23;;;;;;;16.32;10.58;;;19.10;99.90;;;;;;1833202;78;21200;-74
2021/07/21 08:05:54;;;;;;;18.35;11.00;;;19.20;99.90;;;;;;1833320;78;21602;-73
2021/07/21 08:08:21;;;;;;;15.78;10.55;;;19.20;99.90;;;;;;1831860;78;21134;-73
2021/07/21 08:10:48;;;;;;;16.50;10.20;;;19.20;99.90;;;;;;1835199;77;21238;-74
2021/07/21 08:13:16;;;;;;;15.70;9.43;;;19.30;99.90;;;;;;1840142;77;21105;-74
2021/07/21 08:15:44;;;;;;;16.25;10.58;;;19.30;99.90;;;;;;1832628;77;21176;-73
2021/07/21 08:18:12;;;;;;;16.93;10.72;;;19.40;99.90;;;;;;1824311;77;21113;-75
2021/07/21 08:20:40;;;;;;;20.88;10.78;;;19.40;99.90;;;;;;1829840;77;21684;-74
2021/07/21 08:23:08;;;;;;;18.82;10.10;;;19.40;99.90;;;;;;1825452;77;21144;-74
2021/07/21 08:25:35;;;;;;;14.75;9.90;;;19.50;99.90;;;;;;1831879;77;21412;-74
2021/07/21 08:28:04;;;;;;;15.20;9.60;;;19.60;99.90;;;;;;1831811;77;21319;-74
2021/07/21 08:30:32;;;;;;;14.63;9.08;;;19.70;99.90;;;;;;1833941;77;21175;-73
2021/07/21 08:33:00;;;;;;;15.83;9.65;;;19.70;99.90;;;;;;1833489;77;21226;-74
2021/07/21 08:35:30;;;;;;;18.95;9.93;;;19.70;99.90;;;;;;1832147;78;21206;-73
2021/07/21 08:37:59;;;;;;;14.87;8.98;;;19.80;99.90;;;;;;1832005;78;21113;-74
2021/07/21 08:40:30;;;;;;;14.13;9.20;;;19.90;99.90;;;;;;1833184;77;21089;-74
2021/07/21 08:42:58;;;;;;;18.00;9.63;;;19.90;99.90;;;;;;1836782;77;21160;-74
2021/07/21 08:45:27;;;;;;;14.43;8.58;;;20.00;99.90;;;;;;1832586;77;21389;-75
2021/07/21 08:47:54;;;;;;;16.87;9.53;;;20.10;99.90;;;;;;1803814;79;21096;-74
2021/07/21 08:50:22;;;;;;;16.73;9.00;;;20.20;99.90;;;;;;1782017;77;21107;-74
2021/07/21 08:52:53;;;;;;;15.13;8.70;;;20.30;99.90;;;;;;1850264;77;21134;-75
2021/07/21 08:55:23;;;;;;;17.62;9.80;;;20.40;99.90;;;;;;1833771;78;21076;-74
2021/07/21 08:57:50;;;;;;;14.60;9.00;;;20.50;99.90;;;;;;1839638;77;21082;-74
2021/07/21 09:00:19;;;;;;;16.12;8.75;;;20.70;99.90;;;;;;1831046;77;21586;-74
2021/07/21 09:02:47;;;;;;;17.52;8.60;;;20.60;99.90;;;;;;1833349;77;21129;-74
2021/07/21 09:05:17;;;;;;;16.70;8.65;;;20.70;99.90;;;;;;1834400;77;21134;-74
2021/07/21 09:07:47;;;;;;;17.60;8.93;;;20.90;99.90;;;;;;1835691;77;21183;-74
2021/07/21 09:10:17;;;;;;;14.55;8.50;;;21.00;99.90;;;;;;1838830;77;21654;-74
2021/07/21 09:12:47;;;;;;;16.60;8.58;;;21.10;99.90;;;;;;1831530;77;21140;-73
2021/07/21 09:15:17;;;;;;;11.43;7.85;;;21.10;99.90;;;;;;1832474;78;21120;-74
2021/07/21 09:18:11;;;;;;;10.80;7.30;;;21.10;99.90;;;;;;1799749;79;21724;-74
2021/07/21 09:20:42;;;;;;;14.20;7.90;;;21.00;99.90;;;;;;1793551;79;21085;-74
2021/07/21 09:23:10;;;;;;;14.33;7.87;;;21.10;99.90;;;;;;1801671;79;21134;-74
2021/07/21 09:25:40;;;;;;;16.90;7.97;;;21.30;99.90;;;;;;1832391;78;21657;-74
2021/07/21 09:28:11;;;;;;;14.05;8.08;;;21.30;99.90;;;;;;1832574;77;21121;-73
2021/07/21 09:30:44;;;;;;;16.93;8.23;;;21.50;99.90;;;;;;1833364;78;21194;-73
2021/07/21 09:33:17;;;;;;;18.95;8.40;;;21.50;99.90;;;;;;1825483;77;21216;-73
2021/07/21 09:35:51;;;;;;;17.70;8.20;;;21.40;99.90;;;;;;1828325;78;21635;-73
2021/07/21 09:38:22;;;;;;;12.68;7.95;;;21.50;99.90;;;;;;1837236;77;21743;-72
2021/07/21 09:40:53;;;;;;;20.97;8.95;;;21.60;99.90;;;;;;1833532;78;21631;-73
2021/07/21 09:43:23;;;;;;;13.72;8.23;;;21.60;99.90;;;;;;1831691;77;21144;-73
2021/07/21 09:45:52;;;;;;;13.83;8.45;;;21.70;99.90;;;;;;1833134;77;21207;-73
2021/07/21 09:48:21;;;;;;;14.58;7.90;;;21.70;99.90;;;;;;1843595;77;21201;-73
2021/07/21 09:50:49;;;;;;;12.73;7.55;;;21.80;99.90;;;;;;1829965;77;21077;-73
2021/07/21 09:53:17;;;;;;;12.23;8.38;;;21.90;99.90;;;;;;1861628;76;21192;-69
2021/07/21 09:55:47;;;;;;;11.75;7.92;;;21.80;99.90;;;;;;1896636;75;21151;-69
2021/07/21 09:58:23;;;;;;;14.30;7.85;;;21.90;99.90;;;;;;1895792;75;21109;-69
2021/07/21 10:00:49;;;;;;;11.25;7.53;;;21.80;99.90;;;;;;1897366;75;21094;-70
2021/07/21 10:03:27;;;;;;;17.40;8.08;;;21.90;99.90;;;;;;1893606;74;21034;-68
2021/07/21 10:06:07;;;;;;;12.78;8.03;;;21.80;99.90;;;;;;1865568;77;21149;-69
2021/07/21 10:08:38;;;;;;;13.45;7.60;;;21.70;99.90;;;;;;1864246;75;21006;-69
2021/07/21 10:11:35;;;;;;;15.83;8.28;;;21.70;99.90;;;;;;1863392;75;21174;-69
2021/07/21 10:14:06;;;;;;;12.50;8.93;;;21.60;99.90;;;;;;1861291;75;21424;-68
2021/07/21 10:16:43;;;;;;;16.12;9.08;;;21.60;99.90;;;;;;1860219;77;21104;-69
2021/07/21 10:19:22;;;;;;;13.43;7.92;;;21.50;99.90;;;;;;1871129;75;21437;-69
2021/07/21 10:21:53;;;;;;;14.38;8.53;;;21.30;99.90;;;;;;1852456;75;21537;-69
2021/07/21 10:24:23;;;;;;;15.13;8.57;;;21.30;99.90;;;;;;1871196;75;21126;-68
2021/07/21 10:26:52;;;;;;;15.08;8.38;;;21.20;99.90;;;;;;1878729;75;21058;-68
2021/07/21 10:29:20;;;;;;;12.50;7.80;;;21.10;99.90;;;;;;1866598;75;21536;-69
2021/07/21 10:31:48;;;;;;;12.07;8.28;;;21.00;99.90;;;;;;1864348;75;21134;-70
2021/07/21 10:34:17;;;;;;;20.45;8.20;;;21.00;99.90;;;;;;1869898;75;21548;-70
2021/07/21 10:36:46;;;;;;;12.63;7.95;;;20.90;99.90;;;;;;1863175;75;21075;-69
2021/07/21 10:39:29;;;;;;;12.73;7.55;;;21.00;99.90;;;;;;1872762;75;21125;-69
2021/07/21 10:41:58;;;;;;;15.13;8.13;;;21.00;99.90;;;;;;1861925;75;21150;-70
2021/07/21 10:44:26;;;;;;;12.50;7.72;;;20.90;99.90;;;;;;1864404;75;21179;-70
2021/07/21 10:46:54;;;;;;;13.72;8.18;;;20.90;99.90;;;;;;1863793;75;21129;-71
2021/07/21 10:49:39;;;;;;;11.93;8.20;;;20.90;99.90;;;;;;1864802;75;21106;-70
2021/07/21 10:55:42;;;;;;;11.50;7.37;;;20.80;99.90;;;;;;1859619;75;21608;-70
2021/07/21 11:00:12;;;;;;;12.40;8.00;;;20.80;99.90;;;;;;1864977;75;21528;-67
2021/07/21 11:02:41;;;;;;;14.10;7.70;;;20.80;99.90;;;;;;1869333;75;21128;-69
2021/07/21 11:05:29;;;;;;;15.85;7.92;;;20.70;99.90;;;;;;1870795;75;21544;-69
2021/07/21 11:07:58;;;;;;;10.78;8.00;;;20.80;99.90;;;;;;1864701;75;21149;-68
2021/07/21 11:10:40;;;;;;;11.33;8.00;;;20.80;99.90;;;;;;1865192;75;21105;-68
2021/07/21 11:13:10;;;;;;;13.03;8.30;;;20.90;99.90;;;;;;1892672;74;21139;-67
2021/07/21 11:15:46;;;;;;;11.30;7.58;;;21.00;99.90;;;;;;1866836;75;21083;-68
2021/07/21 11:18:26;;;;;;;13.22;7.83;;;21.10;99.90;;;;;;1851447;75;21070;-68
2021/07/21 11:21:14;;;;;;;16.62;8.15;;;21.20;99.90;;;;;;1864597;77;21028;-68
2021/07/21 11:23:57;;;;;;;11.55;7.90;;;21.20;99.90;;;;;;1869458;74;21203;-67
2021/07/21 11:26:39;;;;;;;10.90;8.23;;;21.20;99.90;;;;;;1861768;75;21095;-68
2021/07/21 11:29:30;;;;;;;13.30;8.65;;;21.30;99.90;;;;;;1850039;77;21146;-67
2021/07/21 11:32:00;;;;;;;11.75;8.50;;;21.30;99.90;;;;;;1826974;78;21678;-68
2021/07/21 11:34:33;;;;;;;11.18;7.83;;;21.40;99.90;;;;;;1878255;75;21135;-68
2021/07/21 11:37:06;;;;;;;15.45;8.68;;;21.50;99.90;;;;;;1857964;75;21123;-69
2021/07/21 11:39:41;;;;;;;12.65;7.62;;;21.60;99.90;;;;;;1868633;75;21073;-66
2021/07/21 11:42:27;;;;;;;16.82;8.35;;;21.70;99.90;;;;;;1875675;74;21231;-66
2021/07/21 11:45:11;;;;;;;11.55;7.45;;;21.60;99.90;;;;;;1877505;75;21119;-66
2021/07/21 11:47:57;;;;;;;10.70;7.55;;;21.60;99.90;;;;;;1877445;75;21150;-66
2021/07/21 11:50:33;;;;;;;9.75;7.78;;;21.50;99.90;;;;;;1856139;75;21123;-66
2021/07/21 11:53:02;;;;;;;11.35;7.22;;;21.50;99.90;;;;;;1897370;74;21110;-66
2021/07/21 11:55:37;;;;;;;11.88;8.13;;;21.50;99.90;;;;;;1884200;75;21027;-65
2021/07/21 11:58:14;;;;;;;11.88;7.55;;;21.50;99.90;;;;;;1848344;77;21799;-66
2021/07/21 12:00:44;;;;;;;12.80;8.40;;;21.60;99.90;;;;;;1868091;75;21181;-65
2021/07/21 12:03:11;;;;;;;12.68;7.70;;;21.80;99.90;;;;;;1860647;75;22206;-67
2021/07/21 12:05:40;;;;;;;13.80;8.18;;;22.00;99.90;;;;;;1864079;75;21195;-66
2021/07/21 12:08:08;;;;;;;11.78;8.30;;;22.10;99.90;;;;;;1868945;75;21580;-66
2021/07/21 12:10:36;;;;;;;11.65;7.37;;;22.20;99.90;;;;;;1870631;75;21605;-66
2021/07/21 12:13:09;;;;;;;9.50;7.03;;;22.20;99.90;;;;;;1875986;75;21052;-67
2021/07/21 12:15:36;;;;;;;12.10;7.85;;;22.00;99.90;;;;;;1871803;75;21392;-65
2021/07/21 12:18:12;;;;;;;11.68;6.80;;;22.00;99.90;;;;;;1864285;75;21180;-65
2021/07/21 12:20:41;;;;;;;10.38;7.17;;;21.80;99.90;;;;;;1864917;77;21524;-67
2021/07/21 12:23:09;;;;;;;10.00;7.22;;;21.70;99.90;;;;;;1870606;75;21137;-66
2021/07/21 12:25:36;;;;;;;13.72;7.80;;;21.50;99.90;;;;;;1900610;75;21059;-65
2021/07/21 12:28:06;;;;;;;12.03;8.80;;;21.30;99.90;;;;;;1886957;75;21096;-66
2021/07/21 12:30:36;;;;;;;17.48;8.83;;;21.10;99.90;;;;;;1862177;75;21697;-66
2021/07/21 12:33:03;;;;;;;18.12;9.13;;;21.00;99.90;;;;;;1866933;75;21168;-66
2021/07/21 12:35:32;;;;;;;14.98;9.68;;;20.80;99.90;;;;;;1893174;75;21095;-65
2021/07/21 12:38:00;;;;;;;14.47;9.80;;;20.70;99.90;;;;;;1859016;77;21111;-66
2021/07/21 12:40:30;;;;;;;18.67;9.85;;;20.60;99.90;;;;;;1860168;75;21930;-66
2021/07/21 12:43:03;;;;;;;13.40;9.78;;;20.60;99.90;;;;;;1867556;75;21533;-66
2021/07/21 12:45:33;;;;;;;14.53;9.10;;;20.50;99.90;;;;;;1865323;75;21064;-66
2021/07/21 12:48:02;;;;;;;14.58;9.53;;;20.50;99.90;;;;;;1865665;75;21196;-67
2021/07/21 12:50:34;;;;;;;13.48;9.08;;;20.50;99.90;;;;;;1868214;75;21194;-66
2021/07/21 12:53:08;;;;;;;13.90;9.58;;;20.40;99.90;;;;;;1871184;75;21180;-66